ROMMA est une association bénévole à but non lucratif. Votre soutien est indispensable : ADHERER à ROMMA ou FAIRE un DON

Voiron - (38, Isère)

Voironnais (300 m)   Longitude: 05° 35' E   Latitude: 45° 23' N Station partenaire n°109
 

Détail journalier du     <<     >>

Température Precipitation Humidité Pression Vent Dir Rafale Dir. rafale Ensol.
Heure (°C) (mm) (%) (hPa) (km/h) (km/h) (min)
01:00 7.207210291NNO5NNO0
02:00 6.7075102903NNO0
03:00 5.8077102906N0
04:00 5.507610292N10S0
05:00 5.207810301NE5NO0
06:00 4.7080103002NNO0
07:00 4.3081103005NNO0
08:00 7.7072103105NNO30
09:00 8.806810312S10SSO60
10:00 11.106210312SSE8SSE60
11:00 12.206010316SSE13SSE60
12:00 13.805610305SE15SE60
13:00 15.604810294SSE15SSE60
14:00 16.904910296SSO21S60
15:00 17.804710285SSE18SSO60
16:00 18.303810275SSE18SSE60
17:00 18.303810279SSO21SSO60
18:00 18.003710279SSO21S60
19:00 16.803910273SO11O30
20:00 14.205010271OSO5ONO0
21:00 12.405610282ONO5ONO0
22:00 11.306010282S6SO0
23:00 10.206310292NNO5NNO0
minuit 9.3066102903NNO0

Graphique du 29-03-2019

 

Serveur OMMA